Terminal Aerodrome Forecast
Issued by NWS

Home | Current Version | Previous Version | Text Only | Print | Product List | Glossary On
Versions: 1 2 3 4 5 6 7 8 9 10 11 12 13 14 15 16 17 18 19 20 21 22 23 24 25 26 27 28
000
FTUS46 KLOX 021134
TAFPRB
TAF
KPRB 021134Z 0212/0312 30006KT P6SM SKC
     FM021300 31007KT P6SM OVC006
     FM021630 32008KT P6SM SKC
     FM022300 31014KT P6SM SKC
     FM030800 32008KT P6SM SKC
     FM031100 32006KT P6SM OVC010=

USA.gov is the U.S. government's official web portal to all federal, state and local government web resources and services.